createdAt,value
2023-02-28T00:00:37.745Z,3
2023-02-28T00:05:56.220Z,3
2023-02-28T00:11:37.700Z,5
2023-02-28T00:16:56.256Z,4
2023-02-28T00:21:56.220Z,3
2023-02-28T00:27:37.656Z,3
2023-02-28T00:32:37.730Z,4
2023-02-28T00:37:56.213Z,3
2023-02-28T00:43:37.716Z,3
2023-02-28T00:48:56.261Z,5
2023-02-28T00:54:37.666Z,4
2023-02-28T00:59:37.764Z,3
2023-02-28T01:04:56.254Z,3
2023-02-28T01:10:37.683Z,3
2023-02-28T01:15:37.747Z,3
2023-02-28T01:20:56.224Z,4
2023-02-28T01:25:56.211Z,4
2023-02-28T01:31:37.771Z,5
2023-02-28T01:36:56.238Z,5
2023-02-28T01:42:37.702Z,4
2023-02-28T01:47:56.186Z,4
2023-02-28T01:53:37.686Z,3
2023-02-28T01:58:37.700Z,4
2023-02-28T02:03:56.218Z,3
2023-02-28T02:09:37.702Z,4
2023-02-28T02:14:37.699Z,3
2023-02-28T02:19:56.173Z,3
2023-02-28T02:24:56.224Z,3
2023-02-28T02:30:37.659Z,4
2023-02-28T02:35:37.694Z,4
2023-02-28T02:40:56.219Z,3
2023-02-28T02:45:56.208Z,4
2023-02-28T02:50:56.201Z,3
2023-02-28T02:56:37.687Z,3
2023-02-28T03:01:37.911Z,3
2023-02-28T03:06:37.680Z,4
2023-02-28T03:11:37.704Z,2
2023-02-28T03:16:56.216Z,7
2023-02-28T03:22:37.609Z,4
2023-02-28T03:27:37.645Z,4
2023-02-28T03:32:37.798Z,4
2023-02-28T03:37:37.670Z,2
2023-02-28T03:42:56.189Z,4
2023-02-28T03:47:56.234Z,4
2023-02-28T03:53:37.664Z,3
2023-02-28T03:58:56.179Z,4
2023-02-28T04:04:37.732Z,4
2023-02-28T04:09:56.173Z,3
2023-02-28T04:14:56.192Z,4
2023-02-28T04:20:37.681Z,3
2023-02-28T04:25:37.659Z,3
2023-02-28T04:30:56.203Z,5
2023-02-28T04:36:37.660Z,3
2023-02-28T04:41:37.647Z,5
2023-02-28T04:46:37.648Z,3
2023-02-28T04:51:56.202Z,5
2023-02-28T04:56:56.175Z,3
2023-02-28T05:02:37.714Z,3
2023-02-28T05:07:37.685Z,3
2023-02-28T05:12:37.662Z,3
2023-02-28T05:17:56.213Z,2
2023-02-28T05:23:37.732Z,3
2023-02-28T05:28:56.169Z,3
2023-02-28T05:34:37.665Z,2
2023-02-28T05:39:56.299Z,4
2023-02-28T05:44:56.164Z,2
2023-02-28T05:49:56.236Z,3
2023-02-28T05:55:37.756Z,3
2023-02-28T06:00:56.157Z,2
2023-02-28T06:05:56.173Z,3
2023-02-28T06:10:56.188Z,3
2023-02-28T06:15:56.162Z,5
2023-02-28T06:21:37.630Z,2
2023-02-28T06:26:37.724Z,2
2023-02-28T06:31:56.302Z,3
2023-02-28T06:37:39.111Z,2
2023-02-28T06:42:56.175Z,3
2023-02-28T06:47:56.170Z,4
2023-02-28T06:53:38.038Z,3
2023-02-28T06:58:56.192Z,2
2023-02-28T07:03:56.177Z,2
2023-02-28T07:08:56.172Z,5
2023-02-28T07:14:37.649Z,4
2023-02-28T07:19:37.625Z,2
2023-02-28T07:24:37.684Z,3
2023-02-28T07:29:56.222Z,3
2023-02-28T07:35:37.683Z,2
2023-02-28T07:40:56.066Z,2
2023-02-28T07:45:56.202Z,2
2023-02-28T07:50:56.187Z,2
2023-02-28T07:55:56.822Z,2
2023-02-28T08:01:37.692Z,2
2023-02-28T08:06:37.647Z,3
2023-02-28T08:11:56.180Z,2
2023-02-28T08:16:56.208Z,2
2023-02-28T08:22:37.612Z,2
2023-02-28T08:27:37.681Z,3
2023-02-28T08:32:56.313Z,3
2023-02-28T08:38:37.640Z,2
2023-02-28T08:43:56.181Z,2
2023-02-28T08:48:56.219Z,2
2023-02-28T08:54:37.668Z,2
2023-02-28T08:59:56.227Z,2
2023-02-28T09:05:37.833Z,3
2023-02-28T09:10:56.187Z,1
2023-02-28T09:16:38.125Z,2
2023-02-28T09:21:37.692Z,2
2023-02-28T09:27:04.538Z,2
2023-02-28T09:32:37.623Z,2
2023-02-28T09:37:37.677Z,2
2023-02-28T09:42:56.184Z,2
2023-02-28T09:47:56.199Z,2
2023-02-28T09:52:56.224Z,1
2023-02-28T09:57:56.193Z,1
2023-02-28T10:02:56.239Z,1
2023-02-28T10:07:56.247Z,1
2023-02-28T10:13:37.638Z,2
2023-02-28T10:18:56.238Z,3
2023-02-28T10:24:37.643Z,1
2023-02-28T10:29:56.232Z,2
2023-02-28T10:34:56.268Z,3
2023-02-28T10:40:37.622Z,2
2023-02-28T10:45:37.679Z,2
2023-02-28T10:50:37.685Z,2
2023-02-28T10:55:37.707Z,3
2023-02-28T11:00:56.336Z,3
2023-02-28T11:05:56.223Z,2
2023-02-28T11:11:37.690Z,2
2023-02-28T11:16:56.343Z,2
2023-02-28T11:21:56.207Z,3
2023-02-28T11:27:37.623Z,2
2023-02-28T11:32:56.282Z,2
2023-02-28T11:38:37.628Z,3
2023-02-28T11:43:37.622Z,2
2023-02-28T11:48:56.211Z,2
2023-02-28T11:53:56.210Z,3
2023-02-28T11:58:56.224Z,6
2023-02-28T12:04:37.654Z,5
2023-02-28T12:09:37.641Z,2
2023-02-28T12:14:56.181Z,3
2023-02-28T12:20:37.656Z,2
2023-02-28T12:25:56.138Z,2
2023-02-28T12:30:56.150Z,4
2023-02-28T12:35:56.285Z,3
2023-02-28T12:41:37.617Z,2
2023-02-28T12:46:37.784Z,5
2023-02-28T12:51:56.186Z,2
2023-02-28T12:56:56.159Z,2
2023-02-28T13:02:37.753Z,3
2023-02-28T13:07:56.211Z,2
2023-02-28T13:13:37.641Z,3
2023-02-28T13:18:56.131Z,2
2023-02-28T13:23:56.179Z,2
2023-02-28T13:28:56.187Z,2
2023-02-28T13:33:56.178Z,2
2023-02-28T13:39:37.668Z,4
2023-02-28T13:44:56.157Z,2
2023-02-28T13:49:56.161Z,3
2023-02-28T13:54:56.255Z,3
2023-02-28T14:00:37.550Z,2
2023-02-28T14:05:37.657Z,3
2023-02-28T14:10:56.162Z,3
2023-02-28T14:15:56.223Z,3
2023-02-28T14:20:56.157Z,2
2023-02-28T14:26:37.660Z,3
2023-02-28T14:31:37.664Z,3
2023-02-28T14:36:56.156Z,3
2023-02-28T14:41:56.185Z,3
2023-02-28T14:47:37.769Z,3
2023-02-28T14:52:37.646Z,3
2023-02-28T14:57:56.145Z,3
2023-02-28T15:02:56.130Z,4
2023-02-28T15:07:56.146Z,5
2023-02-28T15:13:37.645Z,4
2023-02-28T15:18:56.164Z,4
2023-02-28T15:23:56.162Z,3
2023-02-28T15:29:37.643Z,4
2023-02-28T15:34:56.155Z,4
2023-02-28T15:39:56.177Z,4
2023-02-28T15:45:37.705Z,4
2023-02-28T15:50:56.158Z,4
2023-02-28T15:56:37.636Z,4
2023-02-28T16:01:56.234Z,4
2023-02-28T16:06:56.218Z,3
2023-02-28T16:12:37.607Z,5
2023-02-28T16:17:37.650Z,3
2023-02-28T16:22:56.187Z,3
2023-02-28T16:28:37.600Z,3
2023-02-28T16:33:37.631Z,3
2023-02-28T16:38:56.111Z,4
2023-02-28T16:43:56.121Z,5
2023-02-28T16:48:56.143Z,7
2023-02-28T16:53:56.133Z,3
2023-02-28T16:58:56.148Z,3
2023-02-28T17:03:56.263Z,4
2023-02-28T17:08:56.337Z,5
2023-02-28T17:13:56.193Z,3
2023-02-28T17:19:37.592Z,3
2023-02-28T17:24:37.677Z,5
2023-02-28T17:29:56.194Z,3
2023-02-28T17:35:37.693Z,5
2023-02-28T17:40:56.165Z,9
2023-02-28T17:45:56.244Z,13
2023-02-28T17:51:37.619Z,14
2023-02-28T17:56:56.174Z,11
2023-02-28T18:01:56.177Z,8
2023-02-28T18:07:37.610Z,7
2023-02-28T18:12:37.634Z,8
2023-02-28T18:17:56.121Z,9
2023-02-28T18:22:56.155Z,9
2023-02-28T18:28:37.636Z,6
2023-02-28T18:33:56.143Z,8
2023-02-28T18:38:56.216Z,8
2023-02-28T18:44:37.680Z,6
2023-02-28T18:49:37.655Z,13
2023-02-28T18:54:37.688Z,6
2023-02-28T18:59:56.245Z,6
2023-02-28T19:05:37.661Z,11
2023-02-28T19:10:56.179Z,7
2023-02-28T19:15:57.686Z,8
2023-02-28T19:20:56.218Z,11
2023-02-28T19:25:56.270Z,7
2023-02-28T19:31:37.731Z,8
2023-02-28T19:36:56.072Z,9
2023-02-28T19:41:56.119Z,8
2023-02-28T19:46:56.176Z,9
2023-02-28T19:52:37.604Z,8
2023-02-28T19:57:56.140Z,8
2023-02-28T20:03:37.645Z,8
2023-02-28T20:08:56.134Z,7
2023-02-28T20:13:56.138Z,8
2023-02-28T20:18:56.197Z,9
2023-02-28T20:23:56.223Z,8
2023-02-28T20:29:37.637Z,10
2023-02-28T20:34:56.155Z,7
2023-02-28T20:39:56.170Z,7
2023-02-28T20:45:37.600Z,9
2023-02-28T20:50:37.633Z,14
2023-02-28T20:55:56.126Z,9
2023-02-28T21:00:56.137Z,8
2023-02-28T21:05:56.192Z,12
2023-02-28T21:11:37.629Z,10
2023-02-28T21:16:56.141Z,15
2023-02-28T21:22:37.635Z,13
2023-02-28T21:27:37.635Z,12
2023-02-28T21:32:56.181Z,14
2023-02-28T21:38:37.615Z,14
2023-02-28T21:43:37.590Z,10
2023-02-28T21:48:37.611Z,14
2023-02-28T21:53:37.648Z,12
2023-02-28T21:58:56.134Z,12
2023-02-28T22:03:56.136Z,13
2023-02-28T22:08:56.122Z,12
2023-02-28T22:14:37.628Z,8
2023-02-28T22:19:56.124Z,10
2023-02-28T22:25:37.610Z,9
2023-02-28T22:30:37.666Z,9
2023-02-28T22:35:56.156Z,9
2023-02-28T22:40:56.095Z,10
2023-02-28T22:45:56.157Z,9
2023-02-28T22:51:37.584Z,10
2023-02-28T22:56:56.208Z,9
2023-02-28T23:02:37.626Z,8
2023-02-28T23:07:56.045Z,9
2023-02-28T23:12:56.116Z,9
2023-02-28T23:18:37.616Z,11
2023-02-28T23:23:37.611Z,9
2023-02-28T23:28:56.123Z,7
2023-02-28T23:34:37.590Z,11
2023-02-28T23:39:37.582Z,14
2023-02-28T23:44:56.079Z,11
2023-02-28T23:49:56.126Z,11
2023-02-28T23:54:56.150Z,9
